Terminal Aerodrome Forecast
Issued by NWS

Home | Current Version | Previous Version | Text Only | Print | Product List | Glossary On
Versions: 1 2 3 4 5 6 7 8 9 10 11 12 13
000
FTUS46 KSTO 271122
TAFMHR
TAF
KMHR 271122Z 2712/2812 22008KT P6SM SCT050
      TEMPO 2714/2717 3SM BR BKN010
     FM271900 32011KT P6SM SCT250
      AMD NOT SKED=

USA.gov is the U.S. government's official web portal to all federal, state and local government web resources and services.